Time;durP1;ratioP1;P1;durP2;ratioP2;P2;SDS_P1;SDS_P2;PMS_P1;PMS_P2;Temp;Humidity;BMP_temperature;BMP_pressure;BME280_temperature;BME280_humidity;BME280_pressure;Samples;Min_cycle;Max_cycle;Signal;HPM_P1;HPM_P2
2021/09/13 00:00:40;;;;;;;11.33;10.27;;;15.80;99.90;;;;;;5130522;27;20283;-40
2021/09/13 00:03:06;;;;;;;10.90;9.70;;;15.70;99.90;;;;;;5129956;27;20190;-40
2021/09/13 00:05:32;;;;;;;12.03;10.93;;;15.70;99.90;;;;;;5115369;27;20270;-40
2021/09/13 00:07:57;;;;;;;13.10;10.67;;;15.70;99.90;;;;;;5130156;27;20207;-40
2021/09/13 00:10:23;;;;;;;11.20;10.10;;;15.70;99.90;;;;;;5130517;27;20191;-41
2021/09/13 00:12:49;;;;;;;11.03;9.93;;;15.70;99.90;;;;;;5111403;27;20207;-38
2021/09/13 00:15:15;;;;;;;12.67;11.47;;;15.70;99.90;;;;;;5118980;27;20222;-44
2021/09/13 00:17:41;;;;;;;11.53;10.40;;;15.70;99.90;;;;;;5107745;28;20432;-39
2021/09/13 00:20:07;;;;;;;9.97;9.07;;;15.60;99.90;;;;;;5110883;27;20194;-39
2021/09/13 00:22:33;;;;;;;12.00;10.63;;;15.50;99.90;;;;;;5108914;27;20425;-38
2021/09/13 00:24:59;;;;;;;11.50;10.10;;;15.40;99.90;;;;;;5129936;27;20481;-39
2021/09/13 00:27:24;;;;;;;11.23;10.13;;;15.40;99.90;;;;;;5111383;27;20424;-40
2021/09/13 00:29:50;;;;;;;12.87;11.60;;;15.40;99.90;;;;;;5130012;27;20274;-41
2021/09/13 00:32:15;;;;;;;12.33;10.93;;;15.40;99.90;;;;;;5129373;27;20625;-38
2021/09/13 00:34:41;;;;;;;11.13;10.03;;;15.50;99.90;;;;;;5122783;27;20244;-39
2021/09/13 00:37:07;;;;;;;11.27;10.03;;;15.50;99.90;;;;;;5123643;27;20179;-41
2021/09/13 00:39:32;;;;;;;11.40;10.30;;;15.50;99.90;;;;;;5130111;27;20179;-38
2021/09/13 00:41:58;;;;;;;10.93;9.70;;;15.60;99.90;;;;;;5129820;27;20214;-41
2021/09/13 00:44:24;;;;;;;10.80;9.80;;;15.50;99.90;;;;;;5130258;27;20187;-38
2021/09/13 00:46:50;;;;;;;10.20;9.30;;;15.50;99.90;;;;;;5128909;27;21033;-41
2021/09/13 00:49:16;;;;;;;10.97;9.87;;;15.60;99.90;;;;;;5125047;27;20194;-38
2021/09/13 00:51:41;;;;;;;11.50;10.50;;;15.50;99.90;;;;;;5122538;27;20189;-38
2021/09/13 00:54:07;;;;;;;11.30;10.10;;;15.30;99.90;;;;;;5127794;27;20569;-39
2021/09/13 00:56:33;;;;;;;10.90;9.80;;;15.20;99.90;;;;;;5128941;27;20817;-39
2021/09/13 00:58:59;;;;;;;10.83;9.83;;;15.10;99.90;;;;;;5129709;27;20223;-41
2021/09/13 01:01:24;;;;;;;10.60;9.60;;;15.10;99.90;;;;;;5128617;27;20260;-40
2021/09/13 01:03:50;;;;;;;11.33;10.23;;;15.10;99.90;;;;;;5128936;27;20286;-38
2021/09/13 01:06:16;;;;;;;12.30;10.63;;;15.20;99.90;;;;;;5120281;27;20274;-40
2021/09/13 01:08:43;;;;;;;11.27;10.07;;;15.10;99.90;;;;;;5110741;27;20493;-41
2021/09/13 01:11:10;;;;;;;10.20;9.30;;;15.00;99.90;;;;;;5129517;27;20424;-38
2021/09/13 01:13:36;;;;;;;10.03;9.13;;;15.00;99.90;;;;;;5128538;27;20460;-39
2021/09/13 01:16:05;;;;;;;11.70;9.40;;;14.90;99.90;;;;;;5111317;27;20424;-40
2021/09/13 01:18:31;;;;;;;11.37;10.20;;;14.90;99.90;;;;;;5107189;28;20187;-39
2021/09/13 01:20:58;;;;;;;11.70;10.60;;;14.90;99.90;;;;;;5112691;27;20428;-42
2021/09/13 01:23:28;;;;;;;10.87;9.70;;;14.80;99.90;;;;;;5128451;27;20504;-41
2021/09/13 01:25:54;;;;;;;10.97;9.87;;;14.80;99.90;;;;;;5129276;27;20443;-39
2021/09/13 01:28:20;;;;;;;10.30;9.30;;;14.80;99.90;;;;;;5129159;27;20436;-44
2021/09/13 01:30:46;;;;;;;10.87;9.10;;;14.90;99.90;;;;;;5128887;27;20556;-39
2021/09/13 01:33:12;;;;;;;10.63;9.53;;;14.90;99.90;;;;;;5128293;27;20210;-41
2021/09/13 01:35:37;;;;;;;10.43;9.40;;;15.10;99.90;;;;;;5118949;27;20555;-40
2021/09/13 01:38:03;;;;;;;10.03;9.03;;;15.10;99.90;;;;;;5128373;27;20398;-41
2021/09/13 01:40:29;;;;;;;8.90;8.10;;;15.00;99.90;;;;;;5128817;27;20657;-44
2021/09/13 01:43:02;;;;;;;9.20;8.43;;;14.90;99.90;;;;;;5127576;27;20436;-39
2021/09/13 01:45:28;;;;;;;9.53;8.60;;;14.90;99.90;;;;;;5128935;27;20434;-42
2021/09/13 01:47:54;;;;;;;13.40;8.60;;;14.80;99.90;;;;;;5128273;27;20431;-40
2021/09/13 01:50:21;;;;;;;13.20;9.37;;;14.70;99.90;;;;;;5120678;27;20425;-39
2021/09/13 01:52:46;;;;;;;8.90;8.10;;;14.70;99.90;;;;;;5127437;27;20677;-40
2021/09/13 01:55:13;;;;;;;9.07;8.13;;;14.60;99.90;;;;;;5122806;27;20428;-39
2021/09/13 01:57:39;;;;;;;8.77;7.93;;;14.60;99.90;;;;;;5127824;27;20758;-41
2021/09/13 02:00:07;;;;;;;9.90;9.00;;;14.50;99.90;;;;;;5127915;27;20524;-40
2021/09/13 02:02:32;;;;;;;8.87;8.03;;;14.60;99.90;;;;;;5128037;27;20428;-44
2021/09/13 02:04:58;;;;;;;10.80;9.13;;;14.50;99.90;;;;;;5122136;27;20951;-41
2021/09/13 02:07:24;;;;;;;8.30;7.50;;;14.40;99.90;;;;;;5124097;27;20198;-40
2021/09/13 02:09:52;;;;;;;8.50;7.57;;;14.40;99.90;;;;;;5128086;27;20442;-39
2021/09/13 02:12:21;;;;;;;9.47;8.40;;;14.40;99.90;;;;;;5127746;27;21362;-39
2021/09/13 02:14:47;;;;;;;9.27;8.33;;;14.30;99.90;;;;;;5123736;27;20405;-40
2021/09/13 02:17:13;;;;;;;8.57;7.67;;;14.30;99.90;;;;;;5126203;27;20409;-40
2021/09/13 02:19:38;;;;;;;8.80;7.90;;;14.30;99.90;;;;;;5124731;27;20411;-41
2021/09/13 02:22:04;;;;;;;7.83;7.13;;;14.40;99.90;;;;;;5113278;27;20187;-38
2021/09/13 02:24:30;;;;;;;8.80;8.00;;;14.40;99.90;;;;;;5126401;27;20650;-40
2021/09/13 02:26:56;;;;;;;8.40;7.60;;;14.40;99.90;;;;;;5127484;27;20423;-41
2021/09/13 02:29:22;;;;;;;9.10;8.20;;;14.30;99.90;;;;;;5127688;27;20416;-42
2021/09/13 02:31:47;;;;;;;9.53;8.43;;;14.30;99.90;;;;;;5127313;27;20183;-38
2021/09/13 02:34:13;;;;;;;13.03;7.10;;;14.40;99.90;;;;;;5127847;27;20186;-40
2021/09/13 02:36:39;;;;;;;8.53;7.63;;;14.40;99.90;;;;;;5114580;27;20188;-39
2021/09/13 02:39:06;;;;;;;7.50;6.80;;;14.30;99.90;;;;;;5127342;27;20180;-38
2021/09/13 02:41:32;;;;;;;9.13;8.23;;;14.30;99.90;;;;;;5127160;27;20437;-40
2021/09/13 02:43:57;;;;;;;8.07;7.30;;;14.30;99.90;;;;;;5127515;27;20829;-38
2021/09/13 02:46:23;;;;;;;9.93;7.50;;;14.20;99.90;;;;;;5127180;27;20222;-40
2021/09/13 02:48:49;;;;;;;8.50;7.70;;;14.20;99.90;;;;;;5127760;27;20664;-38
2021/09/13 02:51:15;;;;;;;7.07;6.37;;;14.10;99.90;;;;;;5116751;27;20206;-40
2021/09/13 02:53:40;;;;;;;8.07;7.10;;;14.20;99.90;;;;;;5126453;27;20515;-38
2021/09/13 02:56:06;;;;;;;7.30;6.67;;;14.30;99.90;;;;;;5108428;27;20193;-41
2021/09/13 02:58:32;;;;;;;8.17;7.37;;;14.30;99.90;;;;;;5127499;27;20220;-38
2021/09/13 03:00:57;;;;;;;8.13;7.33;;;14.40;99.90;;;;;;5126946;27;20183;-40
2021/09/13 03:03:23;;;;;;;10.83;7.70;;;14.40;99.90;;;;;;5127259;27;20179;-40
2021/09/13 03:05:49;;;;;;;8.90;8.00;;;14.30;99.90;;;;;;5120481;27;20210;-39
2021/09/13 03:08:14;;;;;;;12.80;8.20;;;14.30;99.90;;;;;;5121794;27;20195;-39
2021/09/13 03:10:41;;;;;;;9.97;7.90;;;14.30;99.90;;;;;;5127150;27;20186;-41
2021/09/13 03:13:06;;;;;;;7.70;6.90;;;14.20;99.90;;;;;;5126622;27;20238;-40
2021/09/13 03:15:32;;;;;;;8.20;7.40;;;14.20;99.90;;;;;;5112878;27;20434;-41
2021/09/13 03:17:58;;;;;;;7.83;7.10;;;14.10;99.90;;;;;;5104798;28;20690;-40
2021/09/13 03:20:23;;;;;;;8.73;7.83;;;14.20;99.90;;;;;;5105949;27;20188;-38
2021/09/13 03:22:49;;;;;;;9.63;7.57;;;14.10;99.90;;;;;;5117429;27;20801;-40
2021/09/13 03:25:15;;;;;;;10.50;7.13;;;14.10;99.90;;;;;;5122101;27;20581;-39
2021/09/13 03:27:40;;;;;;;7.90;7.20;;;14.10;99.90;;;;;;5126335;27;20775;-41
2021/09/13 03:30:07;;;;;;;7.90;7.10;;;14.00;99.90;;;;;;5107588;28;20247;-38
2021/09/13 03:32:33;;;;;;;7.80;7.00;;;14.00;99.90;;;;;;5125927;27;20677;-38
2021/09/13 03:34:58;;;;;;;8.70;7.80;;;14.10;99.90;;;;;;5127188;27;20428;-38
2021/09/13 03:37:24;;;;;;;7.33;6.63;;;14.10;99.90;;;;;;5114686;27;20206;-38
2021/09/13 03:39:50;;;;;;;6.60;6.00;;;14.00;99.90;;;;;;5126546;27;20527;-41
2021/09/13 03:42:15;;;;;;;7.80;7.00;;;14.00;99.90;;;;;;5126286;27;20585;-39
2021/09/13 03:44:41;;;;;;;7.73;7.03;;;14.00;99.90;;;;;;5126824;28;20187;-39
2021/09/13 03:47:07;;;;;;;7.43;6.73;;;14.00;99.90;;;;;;5126323;28;20605;-38
2021/09/13 03:49:33;;;;;;;7.17;6.47;;;13.90;99.90;;;;;;5126780;28;20508;-41
2021/09/13 03:51:58;;;;;;;7.70;5.90;;;13.80;99.90;;;;;;5116521;28;20218;-40
2021/09/13 03:54:24;;;;;;;7.10;6.50;;;13.80;99.90;;;;;;5126485;28;20187;-38
2021/09/13 03:56:50;;;;;;;6.70;6.10;;;13.90;99.90;;;;;;5112957;28;20179;-39
2021/09/13 03:59:16;;;;;;;7.87;7.17;;;13.90;99.90;;;;;;5126559;28;20419;-38
2021/09/13 04:01:41;;;;;;;7.30;6.60;;;13.90;99.90;;;;;;5112338;28;20259;-39
2021/09/13 04:04:08;;;;;;;8.80;7.00;;;13.90;99.90;;;;;;5126623;28;20187;-38
2021/09/13 04:11:54;;;;;;;9.13;8.00;;;13.80;99.90;;;;;;5125032;28;20183;-39
2021/09/13 04:14:25;;;;;;;8.40;7.50;;;13.90;99.90;;;;;;5126342;28;20907;-40
2021/09/13 04:16:51;;;;;;;9.43;8.43;;;13.80;99.90;;;;;;5124734;28;20451;-38
2021/09/13 04:19:18;;;;;;;9.43;7.03;;;13.80;99.90;;;;;;5125617;28;20507;-38
2021/09/13 04:21:43;;;;;;;9.60;8.70;;;13.80;99.90;;;;;;5116563;28;20798;-40
2021/09/13 04:24:09;;;;;;;8.40;7.67;;;13.70;99.90;;;;;;5123216;28;20416;-38
2021/09/13 04:26:35;;;;;;;8.43;7.57;;;13.70;99.90;;;;;;5126402;28;20179;-44
2021/09/13 04:29:00;;;;;;;8.50;7.50;;;13.70;99.90;;;;;;5126453;28;20211;-42
2021/09/13 04:31:27;;;;;;;8.13;7.23;;;13.70;99.90;;;;;;5126001;28;20191;-40
2021/09/13 04:33:53;;;;;;;8.60;7.70;;;13.60;99.90;;;;;;5126440;28;20218;-39
2021/09/13 04:36:19;;;;;;;8.37;7.57;;;13.60;99.90;;;;;;5100535;28;20468;-40
2021/09/13 04:38:45;;;;;;;12.30;8.20;;;13.50;99.90;;;;;;5118949;28;20448;-43
2021/09/13 04:41:11;;;;;;;10.77;7.67;;;13.50;99.90;;;;;;5125524;27;20187;-38
2021/09/13 04:43:37;;;;;;;8.83;8.03;;;13.60;99.90;;;;;;5126275;27;21116;-38
2021/09/13 04:46:03;;;;;;;8.90;8.00;;;13.60;99.90;;;;;;5125241;27;20431;-39
2021/09/13 04:48:29;;;;;;;8.80;7.90;;;13.50;99.90;;;;;;5124679;27;20425;-38
2021/09/13 04:50:55;;;;;;;11.40;8.13;;;13.50;99.90;;;;;;5108613;28;20574;-41
2021/09/13 04:53:21;;;;;;;8.63;7.77;;;13.50;99.90;;;;;;5119541;27;20692;-42
2021/09/13 04:55:46;;;;;;;8.50;7.70;;;13.50;99.90;;;;;;5129591;27;20183;-38
2021/09/13 04:58:12;;;;;;;10.33;8.37;;;13.50;99.90;;;;;;5129515;27;20923;-40
2021/09/13 05:00:38;;;;;;;9.87;7.87;;;13.50;99.90;;;;;;5129961;27;20265;-39
2021/09/13 05:03:04;;;;;;;8.77;7.87;;;13.40;99.90;;;;;;5110866;27;20557;-38
2021/09/13 05:05:30;;;;;;;9.17;8.27;;;13.40;99.90;;;;;;5129603;27;20206;-39
2021/09/13 05:07:55;;;;;;;9.00;8.10;;;13.40;99.90;;;;;;5118349;27;20207;-38
2021/09/13 05:10:21;;;;;;;8.93;8.07;;;13.50;99.90;;;;;;5129428;27;20183;-38
2021/09/13 05:12:47;;;;;;;9.03;8.13;;;13.50;99.90;;;;;;5128888;27;20669;-38
2021/09/13 05:15:12;;;;;;;7.33;6.63;;;13.50;99.90;;;;;;5126322;27;20186;-38
2021/09/13 05:17:38;;;;;;;8.30;7.50;;;13.60;99.90;;;;;;5126804;27;20591;-38
2021/09/13 05:20:04;;;;;;;8.37;7.57;;;13.50;99.90;;;;;;5123752;27;20176;-38
2021/09/13 05:22:30;;;;;;;8.10;7.30;;;13.50;99.90;;;;;;5117244;27;20552;-41
2021/09/13 05:24:56;;;;;;;8.90;8.10;;;13.40;99.90;;;;;;5122801;27;20420;-38
2021/09/13 05:27:22;;;;;;;10.03;8.90;;;13.40;99.90;;;;;;5111174;27;20192;-38
2021/09/13 05:29:47;;;;;;;9.70;8.80;;;13.30;99.90;;;;;;5119337;27;20202;-38
2021/09/13 05:32:13;;;;;;;9.37;7.93;;;13.30;99.90;;;;;;5127327;27;21109;-40
2021/09/13 05:34:39;;;;;;;8.97;8.07;;;13.20;99.90;;;;;;5127929;27;20222;-38
2021/09/13 05:37:04;;;;;;;9.70;8.23;;;13.30;99.90;;;;;;5119943;27;20180;-37
2021/09/13 05:39:30;;;;;;;9.07;8.17;;;13.30;99.90;;;;;;5126109;27;20175;-38
2021/09/13 05:41:56;;;;;;;7.90;7.07;;;13.30;99.90;;;;;;5127081;27;20223;-40
2021/09/13 05:44:21;;;;;;;11.80;8.20;;;13.50;99.90;;;;;;5127861;27;20175;-38
2021/09/13 05:46:47;;;;;;;10.20;9.20;;;13.50;99.90;;;;;;5128469;27;20187;-38
2021/09/13 05:49:13;;;;;;;11.10;9.93;;;13.60;99.90;;;;;;5127910;27;20191;-39
2021/09/13 05:51:45;;;;;;;10.43;8.83;;;13.60;99.90;;;;;;5125333;27;20486;-40
2021/09/13 05:54:14;;;;;;;10.10;9.03;;;13.60;99.90;;;;;;5121326;27;20187;-43
2021/09/13 05:56:41;;;;;;;9.30;8.40;;;13.50;99.90;;;;;;5117102;27;20433;-38
2021/09/13 05:59:07;;;;;;;11.03;9.90;;;13.60;99.90;;;;;;5121068;27;20417;-38
2021/09/13 06:01:33;;;;;;;9.70;8.70;;;13.60;99.90;;;;;;5128080;27;20428;-40
2021/09/13 06:03:59;;;;;;;10.13;8.97;;;13.60;99.90;;;;;;5128177;27;20417;-38
2021/09/13 06:06:24;;;;;;;10.83;9.83;;;13.70;99.90;;;;;;5108556;27;20225;-38
2021/09/13 06:08:50;;;;;;;10.13;8.80;;;13.60;99.90;;;;;;5114693;27;20244;-38
2021/09/13 06:11:16;;;;;;;10.87;9.60;;;13.60;99.90;;;;;;5128041;27;20304;-38
2021/09/13 06:13:42;;;;;;;11.67;10.30;;;13.70;99.90;;;;;;5123970;27;20211;-39
2021/09/13 06:16:08;;;;;;;13.90;10.23;;;13.70;99.90;;;;;;5122067;27;20515;-39
2021/09/13 06:18:35;;;;;;;12.30;10.90;;;13.70;99.90;;;;;;5120029;27;20187;-38
2021/09/13 06:21:01;;;;;;;17.10;11.87;;;13.70;99.90;;;;;;5122540;27;20427;-38
2021/09/13 06:23:27;;;;;;;13.77;11.57;;;13.80;99.90;;;;;;5118657;27;20819;-38
2021/09/13 06:25:53;;;;;;;15.90;12.43;;;13.90;99.90;;;;;;5123531;27;20424;-38
2021/09/13 06:28:18;;;;;;;13.87;12.10;;;13.90;99.90;;;;;;5125013;27;20214;-41
2021/09/13 06:30:44;;;;;;;17.53;13.53;;;14.00;99.90;;;;;;5127455;27;20193;-41
2021/09/13 06:33:10;;;;;;;14.57;12.90;;;14.10;99.90;;;;;;5126235;27;20218;-38
2021/09/13 06:35:35;;;;;;;15.50;12.33;;;14.20;99.90;;;;;;5108417;27;20649;-40
2021/09/13 06:38:02;;;;;;;13.13;11.80;;;14.20;99.90;;;;;;5115287;27;20180;-38
2021/09/13 06:40:27;;;;;;;14.23;12.77;;;14.40;99.90;;;;;;5126342;27;20171;-39
2021/09/13 06:42:53;;;;;;;15.63;14.03;;;14.50;99.90;;;;;;5126814;27;20444;-39
2021/09/13 06:45:23;;;;;;;14.20;12.70;;;14.60;99.90;;;;;;5127616;27;20186;-39
2021/09/13 06:47:49;;;;;;;14.80;13.30;;;14.60;99.90;;;;;;5127393;27;20186;-38
2021/09/13 06:50:26;;;;;;;15.43;13.43;;;14.70;99.90;;;;;;5127278;27;20424;-38
2021/09/13 06:52:53;;;;;;;16.43;14.73;;;14.70;99.90;;;;;;5118079;27;20507;-40
2021/09/13 06:55:19;;;;;;;15.93;14.30;;;14.80;99.90;;;;;;5127045;27;20787;-39
2021/09/13 06:57:45;;;;;;;16.83;15.07;;;14.80;99.90;;;;;;5112602;27;20843;-41
2021/09/13 07:00:17;;;;;;;15.30;13.70;;;14.80;99.90;;;;;;5107486;27;20432;-40
2021/09/13 07:02:44;;;;;;;17.63;15.70;;;14.90;99.90;;;;;;5127014;27;20562;-40
2021/09/13 07:05:11;;;;;;;19.40;17.30;;;15.00;99.90;;;;;;5127470;27;20997;-39
2021/09/13 07:07:38;;;;;;;18.33;16.43;;;15.00;99.90;;;;;;5119863;27;20783;-40
2021/09/13 07:10:05;;;;;;;19.97;17.60;;;15.00;99.90;;;;;;5126046;27;20424;-40
2021/09/13 07:12:32;;;;;;;21.70;17.83;;;15.10;99.90;;;;;;5123425;27;20546;-41
2021/09/13 07:14:57;;;;;;;19.50;17.00;;;15.20;99.90;;;;;;5125162;27;20595;-40
2021/09/13 07:17:23;;;;;;;20.67;18.10;;;15.20;99.90;;;;;;5122639;27;20412;-40
2021/09/13 07:19:51;;;;;;;20.53;18.33;;;15.30;99.90;;;;;;5126731;27;20630;-39
2021/09/13 07:22:17;;;;;;;21.13;18.93;;;15.40;99.90;;;;;;5124614;27;20179;-42
2021/09/13 07:24:43;;;;;;;19.07;17.07;;;15.40;99.90;;;;;;5104982;27;20412;-41
2021/09/13 07:27:11;;;;;;;18.37;16.47;;;15.40;99.90;;;;;;5126264;27;20432;-42
2021/09/13 07:29:37;;;;;;;19.37;16.43;;;15.50;99.90;;;;;;5127281;27;20477;-41
2021/09/13 07:32:03;;;;;;;17.70;15.30;;;15.60;99.90;;;;;;5126080;27;20460;-41
2021/09/13 07:34:29;;;;;;;16.53;14.90;;;15.60;99.90;;;;;;5127237;27;20618;-41
2021/09/13 07:36:56;;;;;;;15.90;14.20;;;15.70;99.90;;;;;;5125764;27;20942;-39
2021/09/13 07:39:27;;;;;;;15.73;14.23;;;15.80;99.90;;;;;;5116191;27;20928;-40
2021/09/13 07:41:53;;;;;;;19.17;13.93;;;15.80;99.90;;;;;;5123662;27;20419;-42
2021/09/13 07:44:19;;;;;;;14.70;12.63;;;15.90;99.90;;;;;;5126852;27;20409;-40
2021/09/13 07:46:45;;;;;;;15.67;13.53;;;16.00;99.90;;;;;;5126849;28;20417;-38
2021/09/13 07:49:10;;;;;;;13.57;12.17;;;16.10;99.90;;;;;;5126611;28;20202;-41
2021/09/13 07:51:36;;;;;;;15.90;10.87;;;16.20;99.90;;;;;;5125895;28;20286;-39
2021/09/13 07:54:02;;;;;;;15.20;11.07;;;16.30;99.90;;;;;;5119968;28;20218;-43
2021/09/13 07:56:28;;;;;;;13.90;10.53;;;16.30;99.90;;;;;;5124505;28;20657;-42
2021/09/13 07:58:54;;;;;;;13.27;11.63;;;16.40;99.90;;;;;;5126764;28;20239;-40
2021/09/13 08:01:20;;;;;;;12.97;11.00;;;16.50;99.90;;;;;;5126382;28;20500;-39
2021/09/13 08:03:46;;;;;;;12.50;10.50;;;16.60;99.90;;;;;;5126249;28;20421;-40
2021/09/13 08:06:12;;;;;;;16.00;10.53;;;16.60;99.90;;;;;;5126139;28;20435;-46
2021/09/13 08:08:38;;;;;;;17.90;11.20;;;16.70;99.90;;;;;;5116116;28;20568;-38
2021/09/13 08:11:04;;;;;;;20.27;10.83;;;16.80;99.90;;;;;;5123049;28;20176;-43
2021/09/13 08:13:30;;;;;;;15.50;8.40;;;16.90;99.90;;;;;;5123676;28;20239;-41
2021/09/13 08:15:56;;;;;;;13.63;9.63;;;16.90;99.90;;;;;;5111803;28;20467;-40
2021/09/13 08:18:22;;;;;;;10.90;9.10;;;16.90;99.90;;;;;;5129008;27;20183;-43
2021/09/13 08:20:47;;;;;;;13.43;8.53;;;17.00;99.90;;;;;;5130445;27;20451;-42
2021/09/13 08:23:13;;;;;;;17.67;10.13;;;17.00;99.90;;;;;;5102676;28;20191;-40
2021/09/13 08:25:39;;;;;;;13.67;10.10;;;17.10;99.90;;;;;;5128257;27;20186;-41
2021/09/13 08:28:05;;;;;;;14.27;10.17;;;17.10;99.90;;;;;;5130434;27;20195;-41
2021/09/13 08:30:31;;;;;;;15.60;9.60;;;17.10;99.90;;;;;;5111720;27;20681;-42
2021/09/13 08:32:58;;;;;;;11.93;9.17;;;17.20;99.90;;;;;;5129845;27;20855;-40
2021/09/13 08:35:24;;;;;;;14.73;9.37;;;17.20;99.90;;;;;;5129978;27;20421;-42
2021/09/13 08:37:50;;;;;;;12.90;8.60;;;17.20;99.90;;;;;;5125279;27;20441;-42
2021/09/13 08:40:16;;;;;;;12.30;8.93;;;17.30;99.90;;;;;;5122697;27;20176;-39
2021/09/13 08:42:45;;;;;;;12.73;9.00;;;17.30;99.90;;;;;;5128478;27;20424;-45
2021/09/13 08:45:16;;;;;;;11.23;8.90;;;17.30;99.90;;;;;;5129842;27;20386;-43
2021/09/13 08:48:03;;;;;;;10.17;8.43;;;17.30;99.90;;;;;;5129889;27;20424;-39
2021/09/13 08:50:42;;;;;;;12.40;8.73;;;17.40;99.90;;;;;;5129896;27;20456;-40
2021/09/13 08:53:12;;;;;;;11.80;8.33;;;17.40;99.90;;;;;;5124218;27;20464;-41
2021/09/13 08:55:38;;;;;;;10.47;7.47;;;17.50;99.90;;;;;;5119916;27;20413;-43
2021/09/13 08:58:05;;;;;;;9.80;7.10;;;17.60;99.90;;;;;;5129654;27;20459;-40
2021/09/13 09:00:33;;;;;;;10.07;8.00;;;17.60;99.90;;;;;;5130045;27;20633;-41
2021/09/13 09:02:59;;;;;;;9.27;6.57;;;17.70;99.90;;;;;;5129559;27;20488;-42
2021/09/13 09:05:26;;;;;;;10.43;7.40;;;17.80;99.90;;;;;;5129711;27;20451;-39
2021/09/13 09:07:54;;;;;;;7.80;6.17;;;17.90;99.90;;;;;;5126219;27;20452;-40
2021/09/13 09:10:26;;;;;;;9.10;6.80;;;18.10;99.90;;;;;;5122032;27;20459;-42
2021/09/13 09:12:59;;;;;;;12.10;7.00;;;18.00;99.90;;;;;;5120300;27;20463;-44
2021/09/13 09:15:26;;;;;;;8.53;6.03;;;18.10;99.90;;;;;;5116170;27;20521;-44
2021/09/13 09:17:56;;;;;;;8.63;6.60;;;18.20;99.90;;;;;;5122553;27;20428;-42
2021/09/13 09:20:22;;;;;;;8.70;6.30;;;18.30;99.90;;;;;;5129469;27;20441;-41
2021/09/13 09:23:03;;;;;;;7.93;6.20;;;18.40;99.90;;;;;;5126870;27;20432;-44
2021/09/13 09:25:33;;;;;;;7.10;5.80;;;18.40;99.90;;;;;;5120008;27;20443;-42
2021/09/13 09:28:01;;;;;;;9.93;6.47;;;18.50;99.90;;;;;;5128639;27;20799;-42
2021/09/13 09:30:42;;;;;;;7.03;4.83;;;18.60;99.90;;;;;;5129222;27;20811;-42
2021/09/13 09:33:21;;;;;;;7.90;5.40;;;18.70;99.90;;;;;;5128537;27;20551;-42
2021/09/13 09:35:56;;;;;;;7.73;5.17;;;18.80;99.90;;;;;;5128560;27;20866;-44
2021/09/13 09:38:45;;;;;;;7.17;4.80;;;18.90;99.90;;;;;;5123203;27;20427;-39
2021/09/13 09:41:13;;;;;;;9.50;5.40;;;19.00;99.90;;;;;;5123473;27;20477;-39
2021/09/13 09:43:58;;;;;;;6.93;5.60;;;19.10;99.90;;;;;;5123584;27;20500;-42
2021/09/13 09:46:24;;;;;;;10.50;5.90;;;19.20;99.90;;;;;;5128313;27;20429;-41
2021/09/13 09:49:01;;;;;;;5.00;4.33;;;19.20;99.90;;;;;;5128516;27;20924;-42
2021/09/13 09:51:29;;;;;;;6.90;5.17;;;19.30;99.90;;;;;;5128326;27;20917;-41
2021/09/13 09:53:56;;;;;;;6.97;4.40;;;19.40;99.90;;;;;;5122572;27;20475;-40
2021/09/13 09:56:25;;;;;;;5.33;4.47;;;19.40;99.90;;;;;;5106074;27;20859;-41
2021/09/13 09:59:05;;;;;;;6.00;4.47;;;19.60;99.90;;;;;;5094511;28;20457;-43
2021/09/13 10:01:43;;;;;;;4.60;4.17;;;19.70;99.90;;;;;;5109022;27;20422;-45
2021/09/13 10:04:26;;;;;;;5.20;3.93;;;19.80;99.90;;;;;;5128543;27;20997;-39
2021/09/13 10:06:55;;;;;;;4.43;4.03;;;19.90;99.90;;;;;;5128255;27;20449;-42
2021/09/13 10:09:22;;;;;;;6.10;4.33;;;20.00;99.90;;;;;;5117931;27;20456;-41
2021/09/13 10:11:50;;;;;;;4.03;3.67;;;20.10;99.90;;;;;;5127938;27;20417;-46
2021/09/13 10:14:21;;;;;;;3.53;2.90;;;20.10;99.90;;;;;;5125031;27;20437;-39
2021/09/13 10:16:48;;;;;;;3.10;2.80;;;20.00;99.90;;;;;;5109369;27;20430;-44
2021/09/13 10:19:14;;;;;;;3.37;2.50;;;20.00;99.90;;;;;;5127603;27;21090;-41
2021/09/13 10:21:40;;;;;;;3.70;2.87;;;20.00;99.90;;;;;;5127979;27;20918;-45
2021/09/13 10:24:17;;;;;;;4.83;3.00;;;20.00;99.90;;;;;;5120565;27;20522;-41
2021/09/13 10:26:55;;;;;;;3.33;3.00;;;20.10;99.90;;;;;;5126598;27;20328;-42
2021/09/13 10:29:27;;;;;;;4.37;3.40;;;20.10;99.90;;;;;;5124518;27;20432;-45
2021/09/13 10:31:54;;;;;;;3.57;2.93;;;20.30;99.90;;;;;;5127304;27;20428;-43
2021/09/13 10:34:47;;;;;;;4.23;3.33;;;20.40;99.90;;;;;;5127829;27;20516;-43
2021/09/13 10:37:15;;;;;;;5.03;3.50;;;20.50;99.90;;;;;;5127738;27;20655;-44
2021/09/13 10:40:00;;;;;;;4.03;3.63;;;20.50;99.90;;;;;;5117492;27;20536;-40
2021/09/13 10:42:38;;;;;;;7.27;3.40;;;20.50;99.90;;;;;;5124275;27;20768;-42
2021/09/13 10:45:24;;;;;;;5.03;2.83;;;20.50;99.90;;;;;;5124351;27;20962;-46
2021/09/13 10:48:01;;;;;;;3.97;2.67;;;20.50;99.90;;;;;;5127425;27;20421;-39
2021/09/13 10:50:41;;;;;;;5.20;2.77;;;20.50;99.90;;;;;;5114648;27;20448;-44
2021/09/13 10:53:19;;;;;;;3.20;2.70;;;20.70;99.90;;;;;;5127338;27;20499;-39
2021/09/13 10:55:52;;;;;;;3.00;2.47;;;20.70;99.90;;;;;;5116381;27;20515;-44
2021/09/13 10:58:18;;;;;;;2.77;2.40;;;20.70;99.90;;;;;;5123863;27;20852;-43
2021/09/13 11:00:44;;;;;;;4.73;2.80;;;20.80;99.90;;;;;;5123436;27;20467;-42
2021/09/13 11:03:34;;;;;;;3.60;3.10;;;20.80;99.90;;;;;;5125044;27;20496;-41
2021/09/13 11:06:12;;;;;;;5.30;3.13;;;20.90;99.90;;;;;;5123857;27;20253;-40
2021/09/13 11:09:07;;;;;;;4.60;3.00;;;21.00;99.90;;;;;;5122379;27;20439;-42
2021/09/13 11:11:38;;;;;;;3.93;2.63;;;21.00;99.90;;;;;;5110225;27;20432;-44
2021/09/13 11:14:24;;;;;;;4.03;3.10;;;21.10;99.90;;;;;;5127257;27;20468;-44
2021/09/13 11:16:51;;;;;;;5.10;2.53;;;21.00;99.90;;;;;;5125228;27;20429;-42
2021/09/13 11:19:20;;;;;;;6.30;3.00;;;21.00;99.90;;;;;;5126951;27;20430;-45
2021/09/13 11:21:55;;;;;;;3.50;2.80;;;21.00;99.90;;;;;;5114663;27;20937;-41
2021/09/13 11:24:24;;;;;;;3.00;2.30;;;21.10;99.90;;;;;;5106327;28;20433;-41
2021/09/13 11:26:51;;;;;;;3.20;2.77;;;21.10;99.90;;;;;;5121390;27;20412;-44
2021/09/13 11:29:24;;;;;;;5.43;2.90;;;21.20;99.90;;;;;;5123597;27;20461;-42
2021/09/13 11:31:51;;;;;;;4.27;2.87;;;21.30;99.90;;;;;;5127055;27;20397;-45
2021/09/13 11:34:16;;;;;;;4.50;2.87;;;21.30;99.90;;;;;;5126906;27;20915;-39
2021/09/13 11:37:25;;;;;;;2.93;2.63;;;21.30;99.90;;;;;;5126216;27;20405;-41
2021/09/13 11:39:59;;;;;;;2.90;2.70;;;21.30;99.90;;;;;;5022022;28;20261;-42
2021/09/13 11:42:26;;;;;;;3.13;2.73;;;21.30;99.90;;;;;;5018084;28;20417;-39
2021/09/13 11:44:55;;;;;;;3.87;3.47;;;21.40;99.90;;;;;;5066470;27;20500;-40
2021/09/13 11:47:29;;;;;;;4.17;3.77;;;21.30;99.90;;;;;;5126307;28;20495;-38
2021/09/13 11:49:57;;;;;;;3.63;3.33;;;21.30;99.90;;;;;;5126743;28;20432;-40
2021/09/13 11:52:32;;;;;;;5.70;4.00;;;21.30;99.90;;;;;;5125033;27;20818;-39
2021/09/13 11:55:17;;;;;;;4.10;3.40;;;21.20;99.90;;;;;;5120896;28;20428;-39
2021/09/13 11:57:49;;;;;;;4.90;3.27;;;21.10;99.90;;;;;;5106041;28;20756;-38
2021/09/13 12:00:23;;;;;;;3.20;2.90;;;21.00;99.90;;;;;;5124506;28;20922;-39
2021/09/13 12:03:00;;;;;;;3.90;3.20;;;21.00;99.90;;;;;;5126075;28;20424;-39
2021/09/13 12:05:32;;;;;;;3.17;2.87;;;21.00;99.90;;;;;;5127043;28;20436;-39
2021/09/13 12:11:20;;;;;;;3.47;3.10;;;21.00;99.90;;;;;;5113588;28;20434;-40
2021/09/13 12:13:47;;;;;;;5.63;3.60;;;21.00;99.90;;;;;;5125963;28;20483;-40
2021/09/13 12:16:14;;;;;;;3.63;2.80;;;20.90;99.90;;;;;;5122971;28;20207;-39
2021/09/13 12:18:39;;;;;;;3.20;2.90;;;20.90;99.90;;;;;;5126582;28;20814;-39
2021/09/13 12:21:16;;;;;;;4.80;3.23;;;20.90;99.90;;;;;;5125860;28;20435;-41
2021/09/13 12:23:45;;;;;;;4.57;3.20;;;20.90;99.90;;;;;;5126107;28;20338;-39
2021/09/13 12:26:11;;;;;;;4.50;3.33;;;20.90;99.90;;;;;;5125121;28;20903;-39
2021/09/13 12:28:37;;;;;;;4.07;3.20;;;20.90;99.90;;;;;;5117431;28;20435;-40
2021/09/13 12:31:08;;;;;;;4.20;3.07;;;20.90;99.90;;;;;;5123434;28;20187;-39
2021/09/13 12:33:48;;;;;;;3.50;3.20;;;20.90;99.90;;;;;;5112434;28;20473;-39
2021/09/13 12:36:18;;;;;;;3.90;3.50;;;20.90;99.90;;;;;;5126451;28;20789;-42
2021/09/13 12:38:49;;;;;;;5.90;4.40;;;20.80;99.90;;;;;;5126260;28;20428;-38
2021/09/13 12:41:29;;;;;;;9.33;4.83;;;20.90;99.90;;;;;;5124034;28;20447;-42
2021/09/13 12:43:54;;;;;;;8.40;4.90;;;20.90;99.90;;;;;;5118071;28;20443;-41
2021/09/13 12:46:20;;;;;;;4.80;4.40;;;20.80;99.90;;;;;;5119573;28;20922;-40
2021/09/13 12:48:51;;;;;;;6.10;4.00;;;20.80;99.90;;;;;;5126174;28;20186;-39
2021/09/13 12:51:19;;;;;;;5.37;4.87;;;20.80;99.90;;;;;;5123501;28;20613;-43
2021/09/13 12:54:00;;;;;;;5.80;4.93;;;20.80;99.90;;;;;;5108023;28;20475;-39